sensor_id;sensor_type;location;lat;lon;timestamp;pressure;altitude;pressure_sealevel;temperature;humidity
13476;BME280;6810;63.824;20.288;2023-07-24T00:02:13;100230.91;;;17.15;83.38
13476;BME280;6810;63.824;20.288;2023-07-24T00:05:01;100233.91;;;17.12;83.61
13476;BME280;6810;63.824;20.288;2023-07-24T00:07:48;100232.19;;;17.11;84.04
13476;BME280;6810;63.824;20.288;2023-07-24T00:10:35;100230.50;;;17.10;83.92
13476;BME280;6810;63.824;20.288;2023-07-24T00:13:22;100230.66;;;17.08;83.42
13476;BME280;6810;63.824;20.288;2023-07-24T00:16:09;100226.25;;;17.07;83.86
13476;BME280;6810;63.824;20.288;2023-07-24T00:18:56;100231.78;;;17.06;84.08
13476;BME280;6810;63.824;20.288;2023-07-24T00:21:43;100222.88;;;17.05;83.52
13476;BME280;6810;63.824;20.288;2023-07-24T00:24:31;100223.84;;;17.04;83.69
13476;BME280;6810;63.824;20.288;2023-07-24T00:27:18;100227.53;;;17.03;84.07
13476;BME280;6810;63.824;20.288;2023-07-24T00:30:06;100227.66;;;17.02;84.34
13476;BME280;6810;63.824;20.288;2023-07-24T00:32:53;100224.13;;;17.01;84.08
13476;BME280;6810;63.824;20.288;2023-07-24T00:35:40;100227.97;;;16.99;84.14
13476;BME280;6810;63.824;20.288;2023-07-24T00:38:27;100233.50;;;16.97;84.21
13476;BME280;6810;63.824;20.288;2023-07-24T00:41:14;100231.75;;;16.96;83.68
13476;BME280;6810;63.824;20.288;2023-07-24T00:44:01;100233.78;;;16.94;84.11
13476;BME280;6810;63.824;20.288;2023-07-24T00:46:49;100238.44;;;16.92;84.58
13476;BME280;6810;63.824;20.288;2023-07-24T00:49:36;100238.44;;;16.92;84.42
13476;BME280;6810;63.824;20.288;2023-07-24T00:52:23;100211.38;;;16.75;84.14
13476;BME280;6810;63.824;20.288;2023-07-24T00:55:12;100226.25;;;16.88;83.70
13476;BME280;6810;63.824;20.288;2023-07-24T00:58:00;100195.38;;;16.64;84.30
13476;BME280;6810;63.824;20.288;2023-07-24T01:00:47;100236.31;;;16.86;84.42
13476;BME280;6810;63.824;20.288;2023-07-24T01:03:35;100233.75;;;16.85;83.93
13476;BME280;6810;63.824;20.288;2023-07-24T01:06:22;100232.06;;;16.84;84.43
13476;BME280;6810;63.824;20.288;2023-07-24T01:09:10;100228.78;;;16.80;84.17
13476;BME280;6810;63.824;20.288;2023-07-24T01:14:53;100234.19;;;16.80;84.88
13476;BME280;6810;63.824;20.288;2023-07-24T01:17:50;100228.09;;;16.78;84.36
13476;BME280;6810;63.824;20.288;2023-07-24T01:20:48;100229.81;;;16.79;84.96
13476;BME280;6810;63.824;20.288;2023-07-24T01:26:38;100222.97;;;16.75;84.69
13476;BME280;6810;63.824;20.288;2023-07-24T01:29:25;100222.16;;;16.75;84.61
13476;BME280;6810;63.824;20.288;2023-07-24T01:32:13;100229.50;;;16.73;84.25
13476;BME280;6810;63.824;20.288;2023-07-24T01:35:00;100233.06;;;16.73;84.42
13476;BME280;6810;63.824;20.288;2023-07-24T01:37:47;100222.44;;;16.72;84.60
13476;BME280;6810;63.824;20.288;2023-07-24T01:40:35;100221.72;;;16.70;84.94
13476;BME280;6810;63.824;20.288;2023-07-24T01:43:24;100224.41;;;16.70;84.96
13476;BME280;6810;63.824;20.288;2023-07-24T01:46:11;100219.16;;;16.68;85.41
13476;BME280;6810;63.824;20.288;2023-07-24T01:48:59;100216.59;;;16.67;84.58
13476;BME280;6810;63.824;20.288;2023-07-24T01:51:46;100223.09;;;16.64;84.62
13476;BME280;6810;63.824;20.288;2023-07-24T01:54:33;100214.34;;;16.62;85.54
13476;BME280;6810;63.824;20.288;2023-07-24T01:57:21;100199.88;;;16.54;85.13
13476;BME280;6810;63.824;20.288;2023-07-24T02:00:08;100207.50;;;16.58;85.14
13476;BME280;6810;63.824;20.288;2023-07-24T02:02:58;100205.81;;;16.57;85.61
13476;BME280;6810;63.824;20.288;2023-07-24T02:05:49;100196.75;;;16.49;85.34
13476;BME280;6810;63.824;20.288;2023-07-24T02:08:37;100213.91;;;16.57;85.65
13476;BME280;6810;63.824;20.288;2023-07-24T02:11:24;100222.97;;;16.56;85.65
13476;BME280;6810;63.824;20.288;2023-07-24T02:14:12;100221.09;;;16.57;84.84
13476;BME280;6810;63.824;20.288;2023-07-24T02:17:00;100212.78;;;16.50;85.60
13476;BME280;6810;63.824;20.288;2023-07-24T02:19:47;100220.41;;;16.55;85.07
13476;BME280;6810;63.824;20.288;2023-07-24T02:22:42;100223.25;;;16.53;85.68
13476;BME280;6810;63.824;20.288;2023-07-24T02:25:29;100223.25;;;16.53;85.87
13476;BME280;6810;63.824;20.288;2023-07-24T02:28:16;100222.38;;;16.53;85.11
13476;BME280;6810;63.824;20.288;2023-07-24T02:31:03;100211.56;;;16.43;85.17
13476;BME280;6810;63.824;20.288;2023-07-24T02:33:50;100220.84;;;16.50;85.60
13476;BME280;6810;63.824;20.288;2023-07-24T02:36:40;100215.75;;;16.47;85.35
13476;BME280;6810;63.824;20.288;2023-07-24T02:39:27;100219.41;;;16.46;85.68
13476;BME280;6810;63.824;20.288;2023-07-24T02:42:14;100220.53;;;16.44;85.88
13476;BME280;6810;63.824;20.288;2023-07-24T02:45:01;100220.66;;;16.42;85.94
13476;BME280;6810;63.824;20.288;2023-07-24T02:47:49;100201.47;;;16.26;86.14
13476;BME280;6810;63.824;20.288;2023-07-24T02:50:36;100225.31;;;16.40;86.17
13476;BME280;6810;63.824;20.288;2023-07-24T02:53:24;100186.75;;;16.21;85.90
13476;BME280;6810;63.824;20.288;2023-07-24T02:56:11;100223.34;;;16.42;85.81
13476;BME280;6810;63.824;20.288;2023-07-24T02:58:58;100226.03;;;16.42;85.79
13476;BME280;6810;63.824;20.288;2023-07-24T03:01:45;100224.47;;;16.40;85.80
13476;BME280;6810;63.824;20.288;2023-07-24T03:04:33;100218.81;;;16.43;86.30
13476;BME280;6810;63.824;20.288;2023-07-24T03:07:20;100222.47;;;16.42;86.16
13476;BME280;6810;63.824;20.288;2023-07-24T03:10:07;100228.00;;;16.40;86.03
13476;BME280;6810;63.824;20.288;2023-07-24T03:12:54;100233.66;;;16.37;86.40
13476;BME280;6810;63.824;20.288;2023-07-24T03:15:41;100230.97;;;16.37;85.82
13476;BME280;6810;63.824;20.288;2023-07-24T03:18:28;100230.22;;;16.35;86.42
13476;BME280;6810;63.824;20.288;2023-07-24T03:21:16;100235.50;;;16.37;85.73
13476;BME280;6810;63.824;20.288;2023-07-24T03:24:03;100203.31;;;16.16;86.52
13476;BME280;6810;63.824;20.288;2023-07-24T03:26:50;100228.41;;;16.36;86.29
13476;BME280;6810;63.824;20.288;2023-07-24T03:29:38;100235.88;;;16.32;86.38
13476;BME280;6810;63.824;20.288;2023-07-24T03:32:25;100236.31;;;16.28;86.34
13476;BME280;6810;63.824;20.288;2023-07-24T03:35:13;100208.22;;;16.11;86.38
13476;BME280;6810;63.824;20.288;2023-07-24T03:38:00;100239.00;;;16.28;86.04
13476;BME280;6810;63.824;20.288;2023-07-24T03:40:47;100226.53;;;16.27;86.39
13476;BME280;6810;63.824;20.288;2023-07-24T03:43:34;100232.78;;;16.27;86.39
13476;BME280;6810;63.824;20.288;2023-07-24T03:46:21;100227.97;;;16.21;86.59
13476;BME280;6810;63.824;20.288;2023-07-24T03:49:08;100206.09;;;16.05;87.03
13476;BME280;6810;63.824;20.288;2023-07-24T03:51:55;100229.47;;;16.14;86.73
13476;BME280;6810;63.824;20.288;2023-07-24T03:54:42;100241.25;;;16.23;86.79
13476;BME280;6810;63.824;20.288;2023-07-24T03:57:30;100246.66;;;16.23;86.42
13476;BME280;6810;63.824;20.288;2023-07-24T04:00:17;100220.13;;;16.09;86.90
13476;BME280;6810;63.824;20.288;2023-07-24T04:03:04;100246.91;;;16.20;86.54
13476;BME280;6810;63.824;20.288;2023-07-24T04:05:51;100247.88;;;16.19;86.96
13476;BME280;6810;63.824;20.288;2023-07-24T04:08:38;100245.34;;;16.17;86.65
13476;BME280;6810;63.824;20.288;2023-07-24T04:11:26;100239.94;;;16.17;86.83
13476;BME280;6810;63.824;20.288;2023-07-24T04:14:13;100244.78;;;16.14;86.98
13476;BME280;6810;63.824;20.288;2023-07-24T04:17:00;100224.63;;;16.08;87.34
13476;BME280;6810;63.824;20.288;2023-07-24T04:19:47;100237.81;;;16.11;87.17
13476;BME280;6810;63.824;20.288;2023-07-24T04:22:34;100248.28;;;16.14;87.62
13476;BME280;6810;63.824;20.288;2023-07-24T04:25:21;100242.09;;;16.14;87.31
13476;BME280;6810;63.824;20.288;2023-07-24T04:28:08;100236.41;;;16.07;86.72
13476;BME280;6810;63.824;20.288;2023-07-24T04:30:59;100239.66;;;16.11;86.88
13476;BME280;6810;63.824;20.288;2023-07-24T04:33:47;100241.34;;;16.12;86.91
13476;BME280;6810;63.824;20.288;2023-07-24T04:36:34;100239.22;;;16.06;86.68
13476;BME280;6810;63.824;20.288;2023-07-24T04:39:21;100229.56;;;16.03;86.88
13476;BME280;6810;63.824;20.288;2023-07-24T04:42:08;100241.03;;;16.05;86.83
13476;BME280;6810;63.824;20.288;2023-07-24T04:44:55;100234.84;;;16.05;87.07
13476;BME280;6810;63.824;20.288;2023-07-24T04:47:42;100233.69;;;16.07;87.21
13476;BME280;6810;63.824;20.288;2023-07-24T04:50:29;100236.25;;;16.09;87.49
13476;BME280;6810;63.824;20.288;2023-07-24T04:53:16;100231.00;;;16.07;87.35
13476;BME280;6810;63.824;20.288;2023-07-24T04:56:03;100229.47;;;16.14;87.59
13476;BME280;6810;63.824;20.288;2023-07-24T04:58:50;100233.88;;;16.15;87.53
13476;BME280;6810;63.824;20.288;2023-07-24T05:01:37;100231.19;;;16.15;87.56
13476;BME280;6810;63.824;20.288;2023-07-24T05:04:24;100231.75;;;16.19;87.57
13476;BME280;6810;63.824;20.288;2023-07-24T05:07:12;100231.75;;;16.19;87.21
13476;BME280;6810;63.824;20.288;2023-07-24T05:09:59;100240.41;;;16.22;87.10
13476;BME280;6810;63.824;20.288;2023-07-24T05:12:46;100228.91;;;16.20;87.18
13476;BME280;6810;63.824;20.288;2023-07-24T05:15:33;100232.19;;;16.24;87.27
13476;BME280;6810;63.824;20.288;2023-07-24T05:18:20;100229.50;;;16.24;87.27
13476;BME280;6810;63.824;20.288;2023-07-24T05:21:07;100233.06;;;16.24;87.39
13476;BME280;6810;63.824;20.288;2023-07-24T05:23:54;100231.06;;;16.26;87.41
13476;BME280;6810;63.824;20.288;2023-07-24T05:26:41;100231.78;;;16.28;87.02
13476;BME280;6810;63.824;20.288;2023-07-24T05:29:28;100228.09;;;16.29;86.58
13476;BME280;6810;63.824;20.288;2023-07-24T05:32:16;100213.22;;;16.25;87.07
13476;BME280;6810;63.824;20.288;2023-07-24T05:35:03;100222.72;;;16.29;86.39
13476;BME280;6810;63.824;20.288;2023-07-24T05:37:50;100229.53;;;16.33;86.96
13476;BME280;6810;63.824;20.288;2023-07-24T05:40:37;100226.56;;;16.36;87.29
13476;BME280;6810;63.824;20.288;2023-07-24T05:43:24;100229.84;;;16.40;87.46
13476;BME280;6810;63.824;20.288;2023-07-24T05:46:11;100209.25;;;16.29;87.00
13476;BME280;6810;63.824;20.288;2023-07-24T05:48:59;100227.59;;;16.45;86.79
13476;BME280;6810;63.824;20.288;2023-07-24T05:51:46;100232.84;;;16.46;87.06
13476;BME280;6810;63.824;20.288;2023-07-24T05:54:33;100223.94;;;16.46;87.29
13476;BME280;6810;63.824;20.288;2023-07-24T05:57:20;100220.13;;;16.48;87.41
13476;BME280;6810;63.824;20.288;2023-07-24T06:00:08;100222.53;;;16.51;87.34
13476;BME280;6810;63.824;20.288;2023-07-24T06:02:55;100225.94;;;16.53;87.35
13476;BME280;6810;63.824;20.288;2023-07-24T06:05:42;100223.13;;;16.55;86.24
13476;BME280;6810;63.824;20.288;2023-07-24T06:08:29;100228.50;;;16.55;86.13
13476;BME280;6810;63.824;20.288;2023-07-24T06:11:16;100222.38;;;16.53;86.62
13476;BME280;6810;63.824;20.288;2023-07-24T06:14:03;100197.94;;;16.35;86.66
13476;BME280;6810;63.824;20.288;2023-07-24T06:16:50;100224.09;;;16.54;85.92
13476;BME280;6810;63.824;20.288;2023-07-24T06:19:37;100211.47;;;16.45;86.30
13476;BME280;6810;63.824;20.288;2023-07-24T06:22:24;100204.91;;;16.38;86.30
13476;BME280;6810;63.824;20.288;2023-07-24T06:25:11;100225.34;;;16.50;86.66
13476;BME280;6810;63.824;20.288;2023-07-24T06:27:58;100223.53;;;16.50;85.99
13476;BME280;6810;63.824;20.288;2023-07-24T06:30:45;100223.38;;;16.52;86.23
13476;BME280;6810;63.824;20.288;2023-07-24T06:33:32;100225.09;;;16.53;86.08
13476;BME280;6810;63.824;20.288;2023-07-24T06:36:20;100220.28;;;16.56;85.54
13476;BME280;6810;63.824;20.288;2023-07-24T06:39:07;100226.91;;;16.52;85.74
13476;BME280;6810;63.824;20.288;2023-07-24T06:41:54;100222.94;;;16.47;85.71
13476;BME280;6810;63.824;20.288;2023-07-24T06:44:42;100225.03;;;16.43;85.18
13476;BME280;6810;63.824;20.288;2023-07-24T06:47:32;100233.09;;;16.43;85.87
13476;BME280;6810;63.824;20.288;2023-07-24T06:50:19;100225.84;;;16.34;85.42
13476;BME280;6810;63.824;20.288;2023-07-24T06:53:06;100235.09;;;16.41;85.68
13476;BME280;6810;63.824;20.288;2023-07-24T06:55:53;100237.66;;;16.43;85.79
13476;BME280;6810;63.824;20.288;2023-07-24T06:58:40;100236.06;;;16.40;85.16
13476;BME280;6810;63.824;20.288;2023-07-24T07:01:27;100238.88;;;16.39;85.66
13476;BME280;6810;63.824;20.288;2023-07-24T07:04:14;100231.41;;;16.42;85.67
13476;BME280;6810;63.824;20.288;2023-07-24T07:07:01;100241.06;;;16.45;85.92
13476;BME280;6810;63.824;20.288;2023-07-24T07:09:48;100237.94;;;16.49;86.18
13476;BME280;6810;63.824;20.288;2023-07-24T07:12:35;100240.09;;;16.55;85.98
13476;BME280;6810;63.824;20.288;2023-07-24T07:15:22;100238.13;;;16.57;85.65
13476;BME280;6810;63.824;20.288;2023-07-24T07:18:10;100241.25;;;16.62;86.24
13476;BME280;6810;63.824;20.288;2023-07-24T07:20:57;100224.53;;;16.59;86.06
13476;BME280;6810;63.824;20.288;2023-07-24T07:23:44;100242.38;;;16.69;86.17
13476;BME280;6810;63.824;20.288;2023-07-24T07:26:31;100227.50;;;16.65;85.87
13476;BME280;6810;63.824;20.288;2023-07-24T07:29:18;100237.28;;;16.76;85.36
13476;BME280;6810;63.824;20.288;2023-07-24T07:32:05;100234.19;;;16.80;86.22
13476;BME280;6810;63.824;20.288;2023-07-24T07:34:53;100240.97;;;16.84;85.81
13476;BME280;6810;63.824;20.288;2023-07-24T07:37:40;100246.22;;;16.86;85.16
13476;BME280;6810;63.824;20.288;2023-07-24T07:40:27;100242.56;;;16.87;85.43
13476;BME280;6810;63.824;20.288;2023-07-24T07:43:14;100217.31;;;16.69;84.57
13476;BME280;6810;63.824;20.288;2023-07-24T07:46:01;100245.09;;;16.88;84.92
13476;BME280;6810;63.824;20.288;2023-07-24T07:48:48;100240.69;;;16.87;85.55
13476;BME280;6810;63.824;20.288;2023-07-24T07:51:35;100242.41;;;16.88;85.62
13476;BME280;6810;63.824;20.288;2023-07-24T07:54:22;100246.06;;;16.87;85.43
13476;BME280;6810;63.824;20.288;2023-07-24T07:57:09;100241.69;;;16.86;84.80
13476;BME280;6810;63.824;20.288;2023-07-24T07:59:56;100238.56;;;16.81;85.67
13476;BME280;6810;63.824;20.288;2023-07-24T08:02:44;100242.13;;;16.82;86.02
13476;BME280;6810;63.824;20.288;2023-07-24T08:05:31;100247.38;;;16.83;86.37
13476;BME280;6810;63.824;20.288;2023-07-24T08:08:18;100201.44;;;16.56;86.50
13476;BME280;6810;63.824;20.288;2023-07-24T08:11:06;100222.72;;;16.69;86.31
13476;BME280;6810;63.824;20.288;2023-07-24T08:13:53;100240.56;;;16.79;86.80
13476;BME280;6810;63.824;20.288;2023-07-24T08:16:40;100238.84;;;16.78;87.06
13476;BME280;6810;63.824;20.288;2023-07-24T08:19:30;100244.66;;;16.83;87.15
13476;BME280;6810;63.824;20.288;2023-07-24T08:22:17;100244.38;;;16.86;86.47
13476;BME280;6810;63.824;20.288;2023-07-24T08:25:04;100241.84;;;16.94;87.26
13476;BME280;6810;63.824;20.288;2023-07-24T08:27:52;100250.47;;;16.98;86.35
13476;BME280;6810;63.824;20.288;2023-07-24T08:30:39;100244.84;;;17.01;86.13
13476;BME280;6810;63.824;20.288;2023-07-24T08:33:30;100246.38;;;17.03;86.70
13476;BME280;6810;63.824;20.288;2023-07-24T08:36:17;100245.25;;;17.06;86.61
13476;BME280;6810;63.824;20.288;2023-07-24T08:39:04;100248.66;;;17.08;86.85
13476;BME280;6810;63.824;20.288;2023-07-24T08:41:51;100244.13;;;17.08;86.21
13476;BME280;6810;63.824;20.288;2023-07-24T08:44:39;100243.13;;;17.09;86.70
13476;BME280;6810;63.824;20.288;2023-07-24T08:47:27;100241.97;;;17.12;86.65
13476;BME280;6810;63.824;20.288;2023-07-24T08:50:16;100239.00;;;17.15;86.37
13476;BME280;6810;63.824;20.288;2023-07-24T08:53:03;100243.94;;;17.19;86.62
13476;BME280;6810;63.824;20.288;2023-07-24T08:55:52;100249.91;;;17.23;86.48
13476;BME280;6810;63.824;20.288;2023-07-24T08:58:39;100237.59;;;17.20;85.82
13476;BME280;6810;63.824;20.288;2023-07-24T09:01:27;100245.25;;;17.25;85.25
13476;BME280;6810;63.824;20.288;2023-07-24T09:04:14;100248.75;;;17.25;85.91
13476;BME280;6810;63.824;20.288;2023-07-24T09:07:01;100256.41;;;17.30;85.49
13476;BME280;6810;63.824;20.288;2023-07-24T09:09:48;100253.47;;;17.33;85.60
13476;BME280;6810;63.824;20.288;2023-07-24T09:12:38;100248.63;;;17.37;85.75
13476;BME280;6810;63.824;20.288;2023-07-24T09:15:25;100246.63;;;17.39;85.63
13476;BME280;6810;63.824;20.288;2023-07-24T09:18:12;100250.34;;;17.47;84.86
13476;BME280;6810;63.824;20.288;2023-07-24T09:20:59;100246.66;;;17.48;85.11
13476;BME280;6810;63.824;20.288;2023-07-24T09:23:47;100251.63;;;17.53;84.91
13476;BME280;6810;63.824;20.288;2023-07-24T09:26:34;100251.47;;;17.54;83.94
13476;BME280;6810;63.824;20.288;2023-07-24T09:29:30;100207.78;;;17.31;83.91
13476;BME280;6810;63.824;20.288;2023-07-24T09:32:25;100243.63;;;17.61;84.00
13476;BME280;6810;63.824;20.288;2023-07-24T09:35:16;100246.59;;;17.67;83.95
13476;BME280;6810;63.824;20.288;2023-07-24T09:38:11;100235.38;;;17.72;84.19
13476;BME280;6810;63.824;20.288;2023-07-24T09:41:00;100243.75;;;17.78;83.78
13476;BME280;6810;63.824;20.288;2023-07-24T09:43:47;100245.72;;;17.86;83.04
13476;BME280;6810;63.824;20.288;2023-07-24T09:46:34;100244.69;;;17.96;83.78
13476;BME280;6810;63.824;20.288;2023-07-24T09:49:24;100237.56;;;18.05;83.56
13476;BME280;6810;63.824;20.288;2023-07-24T09:52:12;100238.50;;;18.13;82.79
13476;BME280;6810;63.824;20.288;2023-07-24T09:55:12;100236.06;;;18.20;82.80
13476;BME280;6810;63.824;20.288;2023-07-24T09:58:03;100232.31;;;18.30;82.77
13476;BME280;6810;63.824;20.288;2023-07-24T10:00:52;100233.53;;;18.45;81.93
13476;BME280;6810;63.824;20.288;2023-07-24T10:03:43;100220.50;;;18.58;81.58
13476;BME280;6810;63.824;20.288;2023-07-24T10:06:32;100225.09;;;18.75;80.08
13476;BME280;6810;63.824;20.288;2023-07-24T10:09:21;100232.09;;;18.86;79.40
13476;BME280;6810;63.824;20.288;2023-07-24T10:12:08;100228.66;;;18.93;79.12
13476;BME280;6810;63.824;20.288;2023-07-24T10:14:56;100230.44;;;19.03;78.65
13476;BME280;6810;63.824;20.288;2023-07-24T10:17:43;100240.06;;;19.05;78.32
13476;BME280;6810;63.824;20.288;2023-07-24T10:20:48;100237.38;;;19.05;77.61
13476;BME280;6810;63.824;20.288;2023-07-24T10:23:45;100204.81;;;18.71;77.22
13476;BME280;6810;63.824;20.288;2023-07-24T10:26:35;100246.38;;;18.78;77.29
13476;BME280;6810;63.824;20.288;2023-07-24T10:29:25;100249.47;;;18.66;77.81
13476;BME280;6810;63.824;20.288;2023-07-24T10:32:18;100251.81;;;18.51;77.99
13476;BME280;6810;63.824;20.288;2023-07-24T10:35:08;100250.34;;;18.39;78.33
13476;BME280;6810;63.824;20.288;2023-07-24T10:37:59;100256.19;;;18.25;78.11
13476;BME280;6810;63.824;20.288;2023-07-24T10:40:47;100253.53;;;18.16;78.83
13476;BME280;6810;63.824;20.288;2023-07-24T10:43:51;100246.09;;;18.00;79.43
13476;BME280;6810;63.824;20.288;2023-07-24T10:46:41;100256.03;;;18.00;79.85
13476;BME280;6810;63.824;20.288;2023-07-24T10:49:31;100250.06;;;17.96;80.27
13476;BME280;6810;63.824;20.288;2023-07-24T10:52:27;100260.16;;;17.94;80.37
13476;BME280;6810;63.824;20.288;2023-07-24T10:55:14;100256.75;;;17.92;80.69
13476;BME280;6810;63.824;20.288;2023-07-24T10:58:01;100253.66;;;17.87;80.91
13476;BME280;6810;63.824;20.288;2023-07-24T11:00:48;100254.53;;;17.78;80.42
13476;BME280;6810;63.824;20.288;2023-07-24T11:03:36;100215.16;;;17.39;81.06
13476;BME280;6810;63.824;20.288;2023-07-24T11:06:24;100257.25;;;17.59;81.28
13476;BME280;6810;63.824;20.288;2023-07-24T11:09:11;100251.63;;;17.53;82.14
13476;BME280;6810;63.824;20.288;2023-07-24T11:11:58;100247.34;;;17.41;82.18
13476;BME280;6810;63.824;20.288;2023-07-24T11:14:50;100250.34;;;17.38;81.82
13476;BME280;6810;63.824;20.288;2023-07-24T11:17:38;100249.47;;;17.37;82.81
13476;BME280;6810;63.824;20.288;2023-07-24T11:20:29;100258.84;;;17.33;83.00
13476;BME280;6810;63.824;20.288;2023-07-24T11:23:16;100253.47;;;17.33;83.42
13476;BME280;6810;63.824;20.288;2023-07-24T11:26:04;100258.44;;;17.38;83.63
13476;BME280;6810;63.824;20.288;2023-07-24T11:28:53;100250.06;;;17.41;83.32
13476;BME280;6810;63.824;20.288;2023-07-24T11:31:40;100255.28;;;17.42;84.19
13476;BME280;6810;63.824;20.288;2023-07-24T11:34:27;100219.13;;;17.25;83.64
13476;BME280;6810;63.824;20.288;2023-07-24T11:37:15;100242.66;;;17.43;83.45
13476;BME280;6810;63.824;20.288;2023-07-24T11:40:03;100251.63;;;17.53;83.35
13476;BME280;6810;63.824;20.288;2023-07-24T11:42:51;100249.59;;;17.55;83.37
13476;BME280;6810;63.824;20.288;2023-07-24T11:45:41;100250.31;;;17.57;83.85
13476;BME280;6810;63.824;20.288;2023-07-24T11:48:29;100253.16;;;17.55;83.24
13476;BME280;6810;63.824;20.288;2023-07-24T11:51:16;100247.22;;;17.52;83.55
13476;BME280;6810;63.824;20.288;2023-07-24T11:54:08;100237.41;;;17.41;83.55
13476;BME280;6810;63.824;20.288;2023-07-24T11:56:55;100247.63;;;17.47;83.13
13476;BME280;6810;63.824;20.288;2023-07-24T11:59:42;100256.88;;;17.45;82.98
13476;BME280;6810;63.824;20.288;2023-07-24T12:02:33;100261.25;;;17.46;83.53
13476;BME280;6810;63.824;20.288;2023-07-24T12:05:21;100253.31;;;17.44;83.42
13476;BME280;6810;63.824;20.288;2023-07-24T12:08:08;100243.50;;;17.43;83.84
13476;BME280;6810;63.824;20.288;2023-07-24T12:10:55;100257.59;;;17.47;83.77
13476;BME280;6810;63.824;20.288;2023-07-24T12:13:42;100255.72;;;17.47;83.25
13476;BME280;6810;63.824;20.288;2023-07-24T12:16:29;100247.78;;;17.46;83.57
13476;BME280;6810;63.824;20.288;2023-07-24T12:19:16;100251.34;;;17.46;83.08
13476;BME280;6810;63.824;20.288;2023-07-24T12:22:04;100253.91;;;17.48;83.08
13476;BME280;6810;63.824;20.288;2023-07-24T12:24:50;100255.44;;;17.50;82.94
13476;BME280;6810;63.824;20.288;2023-07-24T12:27:38;100249.50;;;17.47;83.03
13476;BME280;6810;63.824;20.288;2023-07-24T12:30:24;100253.59;;;17.51;83.73
13476;BME280;6810;63.824;20.288;2023-07-24T12:33:12;100253.31;;;17.54;82.94
13476;BME280;6810;63.824;20.288;2023-07-24T12:35:59;100255.00;;;17.55;83.33
13476;BME280;6810;63.824;20.288;2023-07-24T12:38:46;100250.31;;;17.57;82.80
13476;BME280;6810;63.824;20.288;2023-07-24T12:41:33;100253.03;;;17.57;82.94
13476;BME280;6810;63.824;20.288;2023-07-24T12:44:20;100252.00;;;17.58;83.71
13476;BME280;6810;63.824;20.288;2023-07-24T12:47:07;100255.28;;;17.61;82.93
13476;BME280;6810;63.824;20.288;2023-07-24T12:49:55;100254.56;;;17.59;83.72
13476;BME280;6810;63.824;20.288;2023-07-24T12:52:42;100260.66;;;17.61;83.80
13476;BME280;6810;63.824;20.288;2023-07-24T12:55:32;100243.94;;;17.58;83.54
13476;BME280;6810;63.824;20.288;2023-07-24T12:58:19;100251.44;;;17.64;83.63
13476;BME280;6810;63.824;20.288;2023-07-24T13:01:06;100257.69;;;17.64;82.98
13476;BME280;6810;63.824;20.288;2023-07-24T13:03:53;100247.50;;;17.49;83.34
13476;BME280;6810;63.824;20.288;2023-07-24T13:06:40;100258.81;;;17.43;83.19
13476;BME280;6810;63.824;20.288;2023-07-24T13:09:28;100221.16;;;17.04;83.23
13476;BME280;6810;63.824;20.288;2023-07-24T13:12:15;100257.28;;;17.21;84.36
13476;BME280;6810;63.824;20.288;2023-07-24T13:15:02;100262.94;;;17.18;84.74
13476;BME280;6810;63.824;20.288;2023-07-24T13:17:49;100257.84;;;17.15;84.70
13476;BME280;6810;63.824;20.288;2023-07-24T13:20:53;100255.00;;;17.16;85.16
13476;BME280;6810;63.824;20.288;2023-07-24T13:23:40;100244.97;;;17.18;84.52
13476;BME280;6810;63.824;20.288;2023-07-24T13:26:27;100254.28;;;17.24;84.90
13476;BME280;6810;63.824;20.288;2023-07-24T13:29:14;100249.34;;;17.29;84.32
13476;BME280;6810;63.824;20.288;2023-07-24T13:32:01;100248.34;;;17.30;84.95
13476;BME280;6810;63.824;20.288;2023-07-24T13:34:48;100243.53;;;17.33;85.10
13476;BME280;6810;63.824;20.288;2023-07-24T13:37:35;100247.66;;;17.38;85.06
13476;BME280;6810;63.824;20.288;2023-07-24T13:40:22;100249.03;;;17.42;84.95
13476;BME280;6810;63.824;20.288;2023-07-24T13:43:09;100242.94;;;17.40;84.44
13476;BME280;6810;63.824;20.288;2023-07-24T13:45:56;100247.22;;;17.42;84.45
13476;BME280;6810;63.824;20.288;2023-07-24T13:48:44;100244.66;;;17.41;84.84
13476;BME280;6810;63.824;20.288;2023-07-24T13:51:31;100245.50;;;17.41;84.66
13476;BME280;6810;63.824;20.288;2023-07-24T13:54:18;100244.66;;;17.41;84.55
13476;BME280;6810;63.824;20.288;2023-07-24T13:57:05;100240.97;;;17.42;84.36
13476;BME280;6810;63.824;20.288;2023-07-24T13:59:52;100221.25;;;17.31;84.47
13476;BME280;6810;63.824;20.288;2023-07-24T14:02:19;100242.53;;;17.44;84.73
13476;BME280;6810;63.824;20.288;2023-07-24T14:04:48;100242.81;;;17.41;84.34
13476;BME280;6810;63.824;20.288;2023-07-24T14:07:15;100246.34;;;17.42;84.34
13476;BME280;6810;63.824;20.288;2023-07-24T14:09:42;100241.41;;;17.37;84.05
13476;BME280;6810;63.824;20.288;2023-07-24T14:12:09;100209.38;;;17.24;83.13
13476;BME280;6810;63.824;20.288;2023-07-24T14:14:56;100230.47;;;17.39;84.17
13476;BME280;6810;63.824;20.288;2023-07-24T14:17:43;100242.25;;;17.47;84.21
13476;BME280;6810;63.824;20.288;2023-07-24T14:20:30;100231.19;;;17.50;83.91
13476;BME280;6810;63.824;20.288;2023-07-24T14:23:17;100236.00;;;17.56;83.57
13476;BME280;6810;63.824;20.288;2023-07-24T14:26:04;100232.16;;;17.59;83.70
13476;BME280;6810;63.824;20.288;2023-07-24T14:28:51;100228.31;;;17.61;83.11
13476;BME280;6810;63.824;20.288;2023-07-24T14:31:39;100237.53;;;17.68;82.60
13476;BME280;6810;63.824;20.288;2023-07-24T14:34:26;100233.69;;;17.71;82.31
13476;BME280;6810;63.824;20.288;2023-07-24T14:37:13;100226.47;;;17.71;82.48
13476;BME280;6810;63.824;20.288;2023-07-24T14:40:00;100233.25;;;17.75;81.84
13476;BME280;6810;63.824;20.288;2023-07-24T14:42:47;100233.25;;;17.75;81.80